sensor_id;sensor_type;location;lat;lon;timestamp;P1;durP1;ratioP1;P2;durP2;ratioP2
15327;SDS011;7764;51.430;6.840;2022-11-20T00:01:14;37.27;;;21.37;;
15327;SDS011;7764;51.430;6.840;2022-11-20T00:03:42;37.57;;;22.23;;
15327;SDS011;7764;51.430;6.840;2022-11-20T00:06:12;36.47;;;22.63;;
15327;SDS011;7764;51.430;6.840;2022-11-20T00:08:39;39.60;;;25.00;;
15327;SDS011;7764;51.430;6.840;2022-11-20T00:11:07;34.67;;;22.67;;
15327;SDS011;7764;51.430;6.840;2022-11-20T00:13:35;34.53;;;22.00;;
15327;SDS011;7764;51.430;6.840;2022-11-20T00:16:03;37.17;;;24.23;;
15327;SDS011;7764;51.430;6.840;2022-11-20T00:18:32;34.60;;;22.23;;
15327;SDS011;7764;51.430;6.840;2022-11-20T00:21:02;39.80;;;22.60;;
15327;SDS011;7764;51.430;6.840;2022-11-20T00:23:31;38.33;;;23.70;;
15327;SDS011;7764;51.430;6.840;2022-11-20T00:26:00;36.57;;;22.93;;
15327;SDS011;7764;51.430;6.840;2022-11-20T00:28:27;36.40;;;22.70;;
15327;SDS011;7764;51.430;6.840;2022-11-20T00:30:59;36.23;;;22.83;;
15327;SDS011;7764;51.430;6.840;2022-11-20T00:33:27;37.10;;;22.17;;
15327;SDS011;7764;51.430;6.840;2022-11-20T00:35:58;38.07;;;23.77;;
15327;SDS011;7764;51.430;6.840;2022-11-20T00:38:26;35.03;;;22.03;;
15327;SDS011;7764;51.430;6.840;2022-11-20T00:40:55;37.97;;;23.13;;
15327;SDS011;7764;51.430;6.840;2022-11-20T00:43:23;36.13;;;21.33;;
15327;SDS011;7764;51.430;6.840;2022-11-20T00:45:50;38.67;;;22.13;;
15327;SDS011;7764;51.430;6.840;2022-11-20T00:48:21;39.93;;;22.73;;
15327;SDS011;7764;51.430;6.840;2022-11-20T00:50:48;40.43;;;24.47;;
15327;SDS011;7764;51.430;6.840;2022-11-20T00:53:15;39.27;;;23.57;;
15327;SDS011;7764;51.430;6.840;2022-11-20T00:55:42;38.13;;;22.77;;
15327;SDS011;7764;51.430;6.840;2022-11-20T00:58:10;36.87;;;22.10;;
15327;SDS011;7764;51.430;6.840;2022-11-20T01:00:36;35.23;;;21.77;;
15327;SDS011;7764;51.430;6.840;2022-11-20T01:03:03;34.97;;;21.63;;
15327;SDS011;7764;51.430;6.840;2022-11-20T01:05:33;34.13;;;20.83;;
15327;SDS011;7764;51.430;6.840;2022-11-20T01:08:00;34.03;;;21.17;;
15327;SDS011;7764;51.430;6.840;2022-11-20T01:10:27;33.27;;;20.97;;
15327;SDS011;7764;51.430;6.840;2022-11-20T01:12:55;36.33;;;22.07;;
15327;SDS011;7764;51.430;6.840;2022-11-20T01:15:37;37.53;;;22.63;;
15327;SDS011;7764;51.430;6.840;2022-11-20T01:18:04;37.83;;;23.10;;
15327;SDS011;7764;51.430;6.840;2022-11-20T01:20:33;36.23;;;23.57;;
15327;SDS011;7764;51.430;6.840;2022-11-20T01:23:00;37.70;;;24.27;;
15327;SDS011;7764;51.430;6.840;2022-11-20T01:25:27;37.40;;;23.43;;
15327;SDS011;7764;51.430;6.840;2022-11-20T01:27:54;38.23;;;24.37;;
15327;SDS011;7764;51.430;6.840;2022-11-20T01:30:21;37.57;;;23.47;;
15327;SDS011;7764;51.430;6.840;2022-11-20T01:32:49;36.83;;;22.27;;
15327;SDS011;7764;51.430;6.840;2022-11-20T01:35:16;39.37;;;23.60;;
15327;SDS011;7764;51.430;6.840;2022-11-20T01:37:42;38.53;;;22.87;;
15327;SDS011;7764;51.430;6.840;2022-11-20T01:40:10;38.10;;;22.80;;
15327;SDS011;7764;51.430;6.840;2022-11-20T01:42:37;37.73;;;21.50;;
15327;SDS011;7764;51.430;6.840;2022-11-20T01:48:15;35.27;;;21.63;;
15327;SDS011;7764;51.430;6.840;2022-11-20T01:50:42;34.10;;;21.43;;
15327;SDS011;7764;51.430;6.840;2022-11-20T01:53:09;36.90;;;21.97;;
15327;SDS011;7764;51.430;6.840;2022-11-20T01:55:41;37.53;;;21.97;;
15327;SDS011;7764;51.430;6.840;2022-11-20T01:58:12;34.83;;;21.87;;
15327;SDS011;7764;51.430;6.840;2022-11-20T02:00:39;37.20;;;22.70;;
15327;SDS011;7764;51.430;6.840;2022-11-20T02:03:08;38.50;;;22.77;;
15327;SDS011;7764;51.430;6.840;2022-11-20T02:05:40;35.33;;;23.03;;
15327;SDS011;7764;51.430;6.840;2022-11-20T02:08:11;36.33;;;23.23;;
15327;SDS011;7764;51.430;6.840;2022-11-20T02:10:39;35.97;;;22.57;;
15327;SDS011;7764;51.430;6.840;2022-11-20T02:13:06;39.80;;;24.73;;
15327;SDS011;7764;51.430;6.840;2022-11-20T02:15:51;38.80;;;23.37;;
15327;SDS011;7764;51.430;6.840;2022-11-20T02:18:19;37.80;;;24.30;;
15327;SDS011;7764;51.430;6.840;2022-11-20T02:20:48;41.27;;;23.23;;
15327;SDS011;7764;51.430;6.840;2022-11-20T02:23:20;37.83;;;23.40;;
15327;SDS011;7764;51.430;6.840;2022-11-20T02:25:54;34.53;;;22.57;;
15327;SDS011;7764;51.430;6.840;2022-11-20T02:28:23;38.27;;;24.03;;
15327;SDS011;7764;51.430;6.840;2022-11-20T02:30:50;41.50;;;23.30;;
15327;SDS011;7764;51.430;6.840;2022-11-20T02:33:17;35.53;;;22.63;;
15327;SDS011;7764;51.430;6.840;2022-11-20T02:35:44;39.27;;;23.90;;
15327;SDS011;7764;51.430;6.840;2022-11-20T02:38:11;38.30;;;23.90;;
15327;SDS011;7764;51.430;6.840;2022-11-20T02:40:40;39.27;;;23.77;;
15327;SDS011;7764;51.430;6.840;2022-11-20T02:43:08;38.87;;;24.10;;
15327;SDS011;7764;51.430;6.840;2022-11-20T02:45:35;39.17;;;24.57;;
15327;SDS011;7764;51.430;6.840;2022-11-20T02:48:03;40.67;;;24.23;;
15327;SDS011;7764;51.430;6.840;2022-11-20T02:50:30;35.43;;;23.87;;
15327;SDS011;7764;51.430;6.840;2022-11-20T02:52:57;37.07;;;23.73;;
15327;SDS011;7764;51.430;6.840;2022-11-20T02:55:23;38.07;;;24.33;;
15327;SDS011;7764;51.430;6.840;2022-11-20T02:57:50;37.20;;;23.87;;
15327;SDS011;7764;51.430;6.840;2022-11-20T03:00:19;39.77;;;24.03;;
15327;SDS011;7764;51.430;6.840;2022-11-20T03:02:45;39.73;;;24.37;;
15327;SDS011;7764;51.430;6.840;2022-11-20T03:05:12;36.63;;;23.57;;
15327;SDS011;7764;51.430;6.840;2022-11-20T03:07:39;40.47;;;25.53;;
15327;SDS011;7764;51.430;6.840;2022-11-20T03:10:06;37.50;;;24.17;;
15327;SDS011;7764;51.430;6.840;2022-11-20T03:12:34;37.17;;;24.17;;
15327;SDS011;7764;51.430;6.840;2022-11-20T03:15:01;38.70;;;23.90;;
15327;SDS011;7764;51.430;6.840;2022-11-20T03:17:29;42.30;;;24.27;;
15327;SDS011;7764;51.430;6.840;2022-11-20T03:19:56;39.37;;;23.70;;
15327;SDS011;7764;51.430;6.840;2022-11-20T03:22:23;42.67;;;25.17;;
15327;SDS011;7764;51.430;6.840;2022-11-20T03:24:49;38.10;;;24.37;;
15327;SDS011;7764;51.430;6.840;2022-11-20T03:27:17;39.80;;;24.23;;
15327;SDS011;7764;51.430;6.840;2022-11-20T03:29:43;39.23;;;24.47;;
15327;SDS011;7764;51.430;6.840;2022-11-20T03:32:10;38.73;;;24.93;;
15327;SDS011;7764;51.430;6.840;2022-11-20T03:34:38;38.57;;;24.57;;
15327;SDS011;7764;51.430;6.840;2022-11-20T03:37:05;39.03;;;25.37;;
15327;SDS011;7764;51.430;6.840;2022-11-20T03:39:32;36.57;;;24.57;;
15327;SDS011;7764;51.430;6.840;2022-11-20T03:41:59;39.77;;;24.97;;
15327;SDS011;7764;51.430;6.840;2022-11-20T03:44:26;35.30;;;24.00;;
15327;SDS011;7764;51.430;6.840;2022-11-20T03:46:53;38.10;;;24.30;;
15327;SDS011;7764;51.430;6.840;2022-11-20T03:49:19;36.37;;;24.00;;
15327;SDS011;7764;51.430;6.840;2022-11-20T03:51:48;38.83;;;24.10;;
15327;SDS011;7764;51.430;6.840;2022-11-20T03:54:14;37.83;;;24.13;;
15327;SDS011;7764;51.430;6.840;2022-11-20T03:56:41;37.10;;;23.97;;
15327;SDS011;7764;51.430;6.840;2022-11-20T03:59:09;39.00;;;24.00;;
15327;SDS011;7764;51.430;6.840;2022-11-20T04:01:36;35.87;;;24.07;;
15327;SDS011;7764;51.430;6.840;2022-11-20T04:04:03;37.50;;;24.37;;
15327;SDS011;7764;51.430;6.840;2022-11-20T04:06:33;37.77;;;23.47;;
15327;SDS011;7764;51.430;6.840;2022-11-20T04:09:02;36.53;;;24.10;;
15327;SDS011;7764;51.430;6.840;2022-11-20T04:11:30;34.73;;;22.50;;
15327;SDS011;7764;51.430;6.840;2022-11-20T04:13:58;38.20;;;24.23;;
15327;SDS011;7764;51.430;6.840;2022-11-20T04:16:28;35.70;;;23.63;;
15327;SDS011;7764;51.430;6.840;2022-11-20T04:18:57;37.53;;;24.10;;
15327;SDS011;7764;51.430;6.840;2022-11-20T04:21:24;36.83;;;23.87;;
15327;SDS011;7764;51.430;6.840;2022-11-20T04:23:52;36.43;;;23.80;;
15327;SDS011;7764;51.430;6.840;2022-11-20T04:26:21;37.83;;;24.33;;
15327;SDS011;7764;51.430;6.840;2022-11-20T04:28:50;38.80;;;23.90;;
15327;SDS011;7764;51.430;6.840;2022-11-20T04:31:17;36.83;;;23.33;;
15327;SDS011;7764;51.430;6.840;2022-11-20T04:33:45;36.80;;;23.43;;
15327;SDS011;7764;51.430;6.840;2022-11-20T04:36:13;36.67;;;23.60;;
15327;SDS011;7764;51.430;6.840;2022-11-20T04:38:41;37.70;;;24.17;;
15327;SDS011;7764;51.430;6.840;2022-11-20T04:41:09;38.00;;;23.77;;
15327;SDS011;7764;51.430;6.840;2022-11-20T04:43:45;36.17;;;23.57;;
15327;SDS011;7764;51.430;6.840;2022-11-20T04:46:13;37.43;;;24.97;;
15327;SDS011;7764;51.430;6.840;2022-11-20T04:48:40;35.90;;;22.97;;
15327;SDS011;7764;51.430;6.840;2022-11-20T04:51:07;34.93;;;22.20;;
15327;SDS011;7764;51.430;6.840;2022-11-20T04:53:34;34.50;;;23.53;;
15327;SDS011;7764;51.430;6.840;2022-11-20T04:56:01;38.13;;;23.50;;
15327;SDS011;7764;51.430;6.840;2022-11-20T04:58:28;36.70;;;23.83;;
15327;SDS011;7764;51.430;6.840;2022-11-20T05:01:01;33.87;;;22.47;;
15327;SDS011;7764;51.430;6.840;2022-11-20T05:03:29;35.37;;;23.37;;
15327;SDS011;7764;51.430;6.840;2022-11-20T05:05:56;36.83;;;23.97;;
15327;SDS011;7764;51.430;6.840;2022-11-20T05:08:25;36.37;;;23.50;;
15327;SDS011;7764;51.430;6.840;2022-11-20T05:10:52;34.47;;;23.23;;
15327;SDS011;7764;51.430;6.840;2022-11-20T05:13:19;37.20;;;23.13;;
15327;SDS011;7764;51.430;6.840;2022-11-20T05:15:46;37.17;;;24.27;;
15327;SDS011;7764;51.430;6.840;2022-11-20T05:18:14;38.80;;;24.40;;
15327;SDS011;7764;51.430;6.840;2022-11-20T05:20:40;35.73;;;23.73;;
15327;SDS011;7764;51.430;6.840;2022-11-20T05:23:07;36.20;;;24.60;;
15327;SDS011;7764;51.430;6.840;2022-11-20T05:25:34;39.17;;;24.83;;
15327;SDS011;7764;51.430;6.840;2022-11-20T05:28:01;36.67;;;23.13;;
15327;SDS011;7764;51.430;6.840;2022-11-20T05:30:28;35.90;;;23.90;;
15327;SDS011;7764;51.430;6.840;2022-11-20T05:32:55;39.20;;;23.97;;
15327;SDS011;7764;51.430;6.840;2022-11-20T05:35:23;35.17;;;22.23;;
15327;SDS011;7764;51.430;6.840;2022-11-20T05:37:50;37.87;;;23.07;;
15327;SDS011;7764;51.430;6.840;2022-11-20T05:40:16;34.87;;;23.33;;
15327;SDS011;7764;51.430;6.840;2022-11-20T05:42:43;35.90;;;22.97;;
15327;SDS011;7764;51.430;6.840;2022-11-20T05:45:10;35.87;;;23.90;;
15327;SDS011;7764;51.430;6.840;2022-11-20T05:47:37;35.70;;;23.67;;
15327;SDS011;7764;51.430;6.840;2022-11-20T05:50:04;39.40;;;25.03;;
15327;SDS011;7764;51.430;6.840;2022-11-20T05:52:32;38.53;;;26.13;;
15327;SDS011;7764;51.430;6.840;2022-11-20T05:54:59;35.80;;;23.73;;
15327;SDS011;7764;51.430;6.840;2022-11-20T05:57:26;37.70;;;24.57;;
15327;SDS011;7764;51.430;6.840;2022-11-20T05:59:53;35.30;;;24.13;;
15327;SDS011;7764;51.430;6.840;2022-11-20T06:02:20;34.60;;;23.03;;
15327;SDS011;7764;51.430;6.840;2022-11-20T06:04:47;39.23;;;24.80;;
15327;SDS011;7764;51.430;6.840;2022-11-20T06:07:14;40.73;;;23.43;;
15327;SDS011;7764;51.430;6.840;2022-11-20T06:09:42;38.77;;;24.50;;
15327;SDS011;7764;51.430;6.840;2022-11-20T06:12:09;37.37;;;23.53;;
15327;SDS011;7764;51.430;6.840;2022-11-20T06:14:36;37.50;;;23.70;;
15327;SDS011;7764;51.430;6.840;2022-11-20T06:17:02;34.87;;;23.20;;
15327;SDS011;7764;51.430;6.840;2022-11-20T06:19:29;37.67;;;24.33;;
15327;SDS011;7764;51.430;6.840;2022-11-20T06:21:56;34.23;;;23.37;;
15327;SDS011;7764;51.430;6.840;2022-11-20T06:24:23;35.70;;;23.90;;
15327;SDS011;7764;51.430;6.840;2022-11-20T06:26:53;37.63;;;24.40;;
15327;SDS011;7764;51.430;6.840;2022-11-20T06:29:20;35.67;;;23.60;;
15327;SDS011;7764;51.430;6.840;2022-11-20T06:31:46;37.87;;;23.70;;
15327;SDS011;7764;51.430;6.840;2022-11-20T06:34:13;35.90;;;23.33;;
15327;SDS011;7764;51.430;6.840;2022-11-20T06:36:40;35.33;;;23.43;;
15327;SDS011;7764;51.430;6.840;2022-11-20T06:39:07;38.00;;;24.50;;
15327;SDS011;7764;51.430;6.840;2022-11-20T06:41:34;38.03;;;24.20;;
15327;SDS011;7764;51.430;6.840;2022-11-20T06:44:03;37.33;;;24.37;;
15327;SDS011;7764;51.430;6.840;2022-11-20T06:46:30;36.37;;;24.00;;
15327;SDS011;7764;51.430;6.840;2022-11-20T06:48:57;36.90;;;24.03;;
15327;SDS011;7764;51.430;6.840;2022-11-20T06:51:24;38.30;;;24.00;;
15327;SDS011;7764;51.430;6.840;2022-11-20T06:53:51;41.63;;;24.07;;
15327;SDS011;7764;51.430;6.840;2022-11-20T06:56:18;41.27;;;25.50;;
15327;SDS011;7764;51.430;6.840;2022-11-20T06:58:45;37.63;;;24.60;;
15327;SDS011;7764;51.430;6.840;2022-11-20T07:01:14;44.50;;;27.90;;
15327;SDS011;7764;51.430;6.840;2022-11-20T07:03:41;42.67;;;24.90;;
15327;SDS011;7764;51.430;6.840;2022-11-20T07:06:09;36.47;;;24.83;;
15327;SDS011;7764;51.430;6.840;2022-11-20T07:08:36;37.67;;;24.40;;
15327;SDS011;7764;51.430;6.840;2022-11-20T07:11:03;43.50;;;27.03;;
15327;SDS011;7764;51.430;6.840;2022-11-20T07:13:32;41.63;;;26.50;;
15327;SDS011;7764;51.430;6.840;2022-11-20T07:15:59;39.50;;;25.33;;
15327;SDS011;7764;51.430;6.840;2022-11-20T07:18:28;39.50;;;25.47;;
15327;SDS011;7764;51.430;6.840;2022-11-20T07:20:55;41.83;;;25.87;;
15327;SDS011;7764;51.430;6.840;2022-11-20T07:23:22;45.10;;;28.10;;
15327;SDS011;7764;51.430;6.840;2022-11-20T07:25:49;41.47;;;27.53;;
15327;SDS011;7764;51.430;6.840;2022-11-20T07:28:15;39.70;;;26.10;;
15327;SDS011;7764;51.430;6.840;2022-11-20T07:30:42;41.47;;;25.93;;
15327;SDS011;7764;51.430;6.840;2022-11-20T07:33:15;45.57;;;26.60;;
15327;SDS011;7764;51.430;6.840;2022-11-20T07:35:43;36.27;;;25.07;;
15327;SDS011;7764;51.430;6.840;2022-11-20T07:38:10;40.67;;;26.37;;
15327;SDS011;7764;51.430;6.840;2022-11-20T07:40:37;42.70;;;29.40;;
15327;SDS011;7764;51.430;6.840;2022-11-20T07:43:04;40.17;;;26.10;;
15327;SDS011;7764;51.430;6.840;2022-11-20T07:45:30;39.40;;;25.90;;
15327;SDS011;7764;51.430;6.840;2022-11-20T07:47:57;45.60;;;27.57;;
15327;SDS011;7764;51.430;6.840;2022-11-20T07:50:24;44.03;;;27.67;;
15327;SDS011;7764;51.430;6.840;2022-11-20T07:52:52;40.63;;;26.10;;
15327;SDS011;7764;51.430;6.840;2022-11-20T07:55:28;39.97;;;26.17;;
15327;SDS011;7764;51.430;6.840;2022-11-20T07:57:55;40.60;;;26.70;;
15327;SDS011;7764;51.430;6.840;2022-11-20T08:00:23;39.30;;;26.13;;
15327;SDS011;7764;51.430;6.840;2022-11-20T08:02:51;43.13;;;27.03;;
15327;SDS011;7764;51.430;6.840;2022-11-20T08:05:18;40.60;;;26.30;;
15327;SDS011;7764;51.430;6.840;2022-11-20T08:07:45;41.53;;;26.93;;
15327;SDS011;7764;51.430;6.840;2022-11-20T08:10:14;42.23;;;27.07;;
15327;SDS011;7764;51.430;6.840;2022-11-20T08:12:45;40.67;;;25.33;;
15327;SDS011;7764;51.430;6.840;2022-11-20T08:15:30;40.73;;;25.60;;
15327;SDS011;7764;51.430;6.840;2022-11-20T08:18:01;43.93;;;29.07;;
15327;SDS011;7764;51.430;6.840;2022-11-20T08:20:29;40.90;;;26.07;;
15327;SDS011;7764;51.430;6.840;2022-11-20T08:22:58;41.07;;;27.03;;
15327;SDS011;7764;51.430;6.840;2022-11-20T08:25:28;39.03;;;26.60;;
15327;SDS011;7764;51.430;6.840;2022-11-20T08:27:57;44.27;;;28.03;;
15327;SDS011;7764;51.430;6.840;2022-11-20T08:30:24;43.57;;;26.83;;
15327;SDS011;7764;51.430;6.840;2022-11-20T08:32:51;41.57;;;28.07;;
15327;SDS011;7764;51.430;6.840;2022-11-20T08:35:19;65.17;;;29.40;;
15327;SDS011;7764;51.430;6.840;2022-11-20T08:37:46;42.17;;;27.93;;
15327;SDS011;7764;51.430;6.840;2022-11-20T08:40:13;45.07;;;29.60;;
15327;SDS011;7764;51.430;6.840;2022-11-20T08:42:46;41.17;;;27.90;;
15327;SDS011;7764;51.430;6.840;2022-11-20T08:45:14;43.37;;;28.00;;
15327;SDS011;7764;51.430;6.840;2022-11-20T08:47:41;41.03;;;26.73;;
15327;SDS011;7764;51.430;6.840;2022-11-20T08:50:08;38.27;;;26.43;;
15327;SDS011;7764;51.430;6.840;2022-11-20T08:52:35;52.10;;;33.67;;
15327;SDS011;7764;51.430;6.840;2022-11-20T08:55:02;42.90;;;27.63;;
15327;SDS011;7764;51.430;6.840;2022-11-20T08:57:31;41.23;;;28.43;;
15327;SDS011;7764;51.430;6.840;2022-11-20T08:59:59;40.30;;;26.87;;
15327;SDS011;7764;51.430;6.840;2022-11-20T09:02:26;36.53;;;24.43;;
15327;SDS011;7764;51.430;6.840;2022-11-20T09:04:53;36.83;;;24.53;;
15327;SDS011;7764;51.430;6.840;2022-11-20T09:07:20;36.03;;;24.53;;
15327;SDS011;7764;51.430;6.840;2022-11-20T09:09:47;33.37;;;23.60;;
15327;SDS011;7764;51.430;6.840;2022-11-20T09:12:14;35.27;;;23.47;;
15327;SDS011;7764;51.430;6.840;2022-11-20T09:14:41;35.07;;;23.70;;
15327;SDS011;7764;51.430;6.840;2022-11-20T09:17:10;37.17;;;24.47;;
15327;SDS011;7764;51.430;6.840;2022-11-20T09:19:38;35.43;;;24.40;;
15327;SDS011;7764;51.430;6.840;2022-11-20T09:22:05;35.30;;;23.93;;
15327;SDS011;7764;51.430;6.840;2022-11-20T09:24:32;37.47;;;23.67;;
15327;SDS011;7764;51.430;6.840;2022-11-20T09:27:01;34.27;;;23.90;;
15327;SDS011;7764;51.430;6.840;2022-11-20T09:29:29;38.90;;;24.73;;
15327;SDS011;7764;51.430;6.840;2022-11-20T09:31:56;35.33;;;24.43;;
15327;SDS011;7764;51.430;6.840;2022-11-20T09:34:24;42.03;;;26.33;;
15327;SDS011;7764;51.430;6.840;2022-11-20T09:36:51;43.10;;;27.50;;
15327;SDS011;7764;51.430;6.840;2022-11-20T09:39:17;39.93;;;25.73;;
15327;SDS011;7764;51.430;6.840;2022-11-20T09:41:49;36.90;;;24.43;;
15327;SDS011;7764;51.430;6.840;2022-11-20T09:44:47;34.93;;;24.27;;
15327;SDS011;7764;51.430;6.840;2022-11-20T09:47:23;34.97;;;23.03;;
15327;SDS011;7764;51.430;6.840;2022-11-20T09:50:02;31.90;;;21.57;;
15327;SDS011;7764;51.430;6.840;2022-11-20T09:52:46;32.97;;;21.07;;
15327;SDS011;7764;51.430;6.840;2022-11-20T09:55:23;28.63;;;19.90;;
15327;SDS011;7764;51.430;6.840;2022-11-20T09:57:51;33.37;;;21.47;;
15327;SDS011;7764;51.430;6.840;2022-11-20T10:00:18;30.13;;;20.70;;
15327;SDS011;7764;51.430;6.840;2022-11-20T10:02:47;33.93;;;21.50;;
15327;SDS011;7764;51.430;6.840;2022-11-20T10:05:20;32.50;;;21.10;;
15327;SDS011;7764;51.430;6.840;2022-11-20T10:07:52;30.43;;;20.33;;
15327;SDS011;7764;51.430;6.840;2022-11-20T10:10:28;30.43;;;20.30;;
15327;SDS011;7764;51.430;6.840;2022-11-20T10:13:10;31.53;;;21.20;;
15327;SDS011;7764;51.430;6.840;2022-11-20T10:15:46;39.00;;;24.67;;
15327;SDS011;7764;51.430;6.840;2022-11-20T10:18:28;35.13;;;22.30;;
15327;SDS011;7764;51.430;6.840;2022-11-20T10:21:09;35.27;;;22.00;;
15327;SDS011;7764;51.430;6.840;2022-11-20T10:23:59;37.37;;;25.47;;
15327;SDS011;7764;51.430;6.840;2022-11-20T10:26:39;33.40;;;23.00;;
15327;SDS011;7764;51.430;6.840;2022-11-20T10:29:15;32.47;;;21.23;;
15327;SDS011;7764;51.430;6.840;2022-11-20T10:31:44;56.87;;;23.37;;
15327;SDS011;7764;51.430;6.840;2022-11-20T10:34:17;30.77;;;21.00;;
15327;SDS011;7764;51.430;6.840;2022-11-20T10:36:50;31.43;;;20.97;;
15327;SDS011;7764;51.430;6.840;2022-11-20T10:39:24;31.27;;;21.20;;
15327;SDS011;7764;51.430;6.840;2022-11-20T10:41:56;32.63;;;22.37;;
15327;SDS011;7764;51.430;6.840;2022-11-20T10:44:31;31.37;;;20.70;;
15327;SDS011;7764;51.430;6.840;2022-11-20T10:47:16;30.47;;;21.30;;
15327;SDS011;7764;51.430;6.840;2022-11-20T10:49:44;33.20;;;21.47;;
15327;SDS011;7764;51.430;6.840;2022-11-20T10:52:18;31.43;;;20.87;;
15327;SDS011;7764;51.430;6.840;2022-11-20T10:54:57;29.93;;;21.00;;
15327;SDS011;7764;51.430;6.840;2022-11-20T10:57:34;29.90;;;20.33;;
15327;SDS011;7764;51.430;6.840;2022-11-20T11:00:11;28.43;;;19.73;;
15327;SDS011;7764;51.430;6.840;2022-11-20T11:02:39;31.43;;;20.47;;
15327;SDS011;7764;51.430;6.840;2022-11-20T11:05:22;33.07;;;20.27;;
15327;SDS011;7764;51.430;6.840;2022-11-20T11:07:57;31.20;;;20.13;;
15327;SDS011;7764;51.430;6.840;2022-11-20T11:10:26;35.10;;;24.23;;
15327;SDS011;7764;51.430;6.840;2022-11-20T11:12:59;28.97;;;19.50;;
15327;SDS011;7764;51.430;6.840;2022-11-20T11:15:27;31.50;;;20.17;;
15327;SDS011;7764;51.430;6.840;2022-11-20T11:17:55;33.40;;;20.77;;
15327;SDS011;7764;51.430;6.840;2022-11-20T11:20:23;29.40;;;19.43;;
15327;SDS011;7764;51.430;6.840;2022-11-20T11:22:51;31.13;;;19.33;;
15327;SDS011;7764;51.430;6.840;2022-11-20T11:25:29;33.37;;;20.20;;
15327;SDS011;7764;51.430;6.840;2022-11-20T11:28:00;29.83;;;19.73;;
15327;SDS011;7764;51.430;6.840;2022-11-20T11:30:28;31.00;;;19.53;;
15327;SDS011;7764;51.430;6.840;2022-11-20T11:33:03;28.40;;;18.87;;
15327;SDS011;7764;51.430;6.840;2022-11-20T11:35:32;33.87;;;20.57;;
15327;SDS011;7764;51.430;6.840;2022-11-20T11:38:03;32.93;;;20.77;;
15327;SDS011;7764;51.430;6.840;2022-11-20T11:40:35;31.00;;;20.07;;
15327;SDS011;7764;51.430;6.840;2022-11-20T11:43:05;33.57;;;20.17;;
15327;SDS011;7764;51.430;6.840;2022-11-20T11:45:53;30.20;;;19.80;;
15327;SDS011;7764;51.430;6.840;2022-11-20T11:48:21;29.77;;;19.00;;
15327;SDS011;7764;51.430;6.840;2022-11-20T11:50:48;29.03;;;19.00;;
15327;SDS011;7764;51.430;6.840;2022-11-20T11:53:16;32.00;;;19.73;;
15327;SDS011;7764;51.430;6.840;2022-11-20T11:55:46;32.97;;;20.03;;
15327;SDS011;7764;51.430;6.840;2022-11-20T11:58:20;31.63;;;20.00;;
15327;SDS011;7764;51.430;6.840;2022-11-20T12:01:02;30.73;;;19.57;;
15327;SDS011;7764;51.430;6.840;2022-11-20T12:03:34;32.93;;;20.73;;
15327;SDS011;7764;51.430;6.840;2022-11-20T12:06:05;31.53;;;20.00;;
15327;SDS011;7764;51.430;6.840;2022-11-20T12:08:37;31.30;;;20.20;;
15327;SDS011;7764;51.430;6.840;2022-11-20T12:11:13;32.47;;;19.80;;
15327;SDS011;7764;51.430;6.840;2022-11-20T12:13:46;33.50;;;20.00;;
15327;SDS011;7764;51.430;6.840;2022-11-20T12:16:19;31.13;;;19.83;;
15327;SDS011;7764;51.430;6.840;2022-11-20T12:18:47;30.93;;;19.67;;
15327;SDS011;7764;51.430;6.840;2022-11-20T12:21:20;32.47;;;20.57;;
15327;SDS011;7764;51.430;6.840;2022-11-20T12:23:59;31.47;;;19.83;;
15327;SDS011;7764;51.430;6.840;2022-11-20T12:26:42;33.40;;;19.53;;
15327;SDS011;7764;51.430;6.840;2022-11-20T12:29:18;30.07;;;19.33;;
15327;SDS011;7764;51.430;6.840;2022-11-20T12:32:01;36.63;;;22.20;;
15327;SDS011;7764;51.430;6.840;2022-11-20T12:34:52;31.77;;;20.57;;
15327;SDS011;7764;51.430;6.840;2022-11-20T12:37:30;33.03;;;19.83;;
15327;SDS011;7764;51.430;6.840;2022-11-20T12:40:09;33.07;;;20.40;;
15327;SDS011;7764;51.430;6.840;2022-11-20T12:43:00;31.97;;;20.37;;
15327;SDS011;7764;51.430;6.840;2022-11-20T12:49:03;33.80;;;19.70;;
15327;SDS011;7764;51.430;6.840;2022-11-20T12:51:52;30.97;;;19.50;;
15327;SDS011;7764;51.430;6.840;2022-11-20T12:57:32;32.33;;;20.83;;
15327;SDS011;7764;51.430;6.840;2022-11-20T13:00:10;35.93;;;20.33;;
15327;SDS011;7764;51.430;6.840;2022-11-20T13:05:35;31.33;;;19.40;;
15327;SDS011;7764;51.430;6.840;2022-11-20T13:08:07;40.73;;;20.67;;
15327;SDS011;7764;51.430;6.840;2022-11-20T13:10:46;34.27;;;21.00;;
15327;SDS011;7764;51.430;6.840;2022-11-20T13:13:23;32.20;;;20.57;;
15327;SDS011;7764;51.430;6.840;2022-11-20T13:16:00;33.80;;;20.10;;
15327;SDS011;7764;51.430;6.840;2022-11-20T13:18:33;35.07;;;22.27;;
15327;SDS011;7764;51.430;6.840;2022-11-20T13:21:12;33.67;;;20.40;;
15327;SDS011;7764;51.430;6.840;2022-11-20T13:23:40;35.13;;;21.17;;
15327;SDS011;7764;51.430;6.840;2022-11-20T13:26:14;33.77;;;21.10;;
15327;SDS011;7764;51.430;6.840;2022-11-20T13:28:44;34.10;;;20.53;;
15327;SDS011;7764;51.430;6.840;2022-11-20T13:31:23;35.40;;;21.20;;
15327;SDS011;7764;51.430;6.840;2022-11-20T13:33:57;34.10;;;20.93;;
15327;SDS011;7764;51.430;6.840;2022-11-20T13:36:26;35.10;;;21.93;;
15327;SDS011;7764;51.430;6.840;2022-11-20T13:38:55;35.17;;;22.00;;
15327;SDS011;7764;51.430;6.840;2022-11-20T13:41:23;36.17;;;22.63;;
15327;SDS011;7764;51.430;6.840;2022-11-20T13:43:54;39.10;;;23.97;;
15327;SDS011;7764;51.430;6.840;2022-11-20T13:46:36;39.67;;;25.37;;
15327;SDS011;7764;51.430;6.840;2022-11-20T13:49:08;39.73;;;23.50;;
15327;SDS011;7764;51.430;6.840;2022-11-20T13:51:40;38.10;;;22.80;;
15327;SDS011;7764;51.430;6.840;2022-11-20T13:57:35;39.80;;;24.27;;
15327;SDS011;7764;51.430;6.840;2022-11-20T14:00:16;38.23;;;23.87;;
15327;SDS011;7764;51.430;6.840;2022-11-20T14:02:46;38.93;;;24.13;;
15327;SDS011;7764;51.430;6.840;2022-11-20T14:05:25;38.37;;;23.37;;
15327;SDS011;7764;51.430;6.840;2022-11-20T14:07:52;40.37;;;23.50;;
15327;SDS011;7764;51.430;6.840;2022-11-20T14:10:21;39.33;;;24.13;;
15327;SDS011;7764;51.430;6.840;2022-11-20T14:12:49;37.87;;;24.27;;
15327;SDS011;7764;51.430;6.840;2022-11-20T14:15:27;37.77;;;24.97;;
15327;SDS011;7764;51.430;6.840;2022-11-20T14:17:56;38.57;;;23.90;;
15327;SDS011;7764;51.430;6.840;2022-11-20T14:20:24;40.10;;;24.43;;
15327;SDS011;7764;51.430;6.840;2022-11-20T14:22:53;44.03;;;26.67;;
15327;SDS011;7764;51.430;6.840;2022-11-20T14:25:21;40.30;;;24.40;;
15327;SDS011;7764;51.430;6.840;2022-11-20T14:27:52;39.63;;;24.73;;
15327;SDS011;7764;51.430;6.840;2022-11-20T14:30:21;40.67;;;25.90;;
15327;SDS011;7764;51.430;6.840;2022-11-20T14:32:49;40.00;;;25.03;;
15327;SDS011;7764;51.430;6.840;2022-11-20T14:35:21;40.53;;;24.83;;
15327;SDS011;7764;51.430;6.840;2022-11-20T14:37:51;43.60;;;26.20;;
15327;SDS011;7764;51.430;6.840;2022-11-20T14:40:22;42.67;;;25.77;;
15327;SDS011;7764;51.430;6.840;2022-11-20T14:42:54;42.07;;;25.73;;
15327;SDS011;7764;51.430;6.840;2022-11-20T14:45:21;41.33;;;25.60;;
15327;SDS011;7764;51.430;6.840;2022-11-20T14:47:50;42.10;;;25.00;;
15327;SDS011;7764;51.430;6.840;2022-11-20T14:50:19;43.20;;;25.37;;
15327;SDS011;7764;51.430;6.840;2022-11-20T14:52:50;43.07;;;26.50;;
15327;SDS011;7764;51.430;6.840;2022-11-20T14:55:28;43.70;;;26.30;;
15327;SDS011;7764;51.430;6.840;2022-11-20T14:57:57;42.93;;;26.43;;
15327;SDS011;7764;51.430;6.840;2022-11-20T15:00:25;39.10;;;25.13;;
15327;SDS011;7764;51.430;6.840;2022-11-20T15:02:52;46.93;;;28.10;;
15327;SDS011;7764;51.430;6.840;2022-11-20T15:05:20;41.17;;;24.87;;